createdAt,value
2022-08-17T00:00:43.756Z,81.80
2022-08-17T00:01:29.308Z,81.82
2022-08-17T00:02:34.437Z,81.97
2022-08-17T00:03:44.126Z,82.09
2022-08-17T00:04:50.426Z,81.98
2022-08-17T00:06:08.829Z,81.84
2022-08-17T00:07:11.132Z,81.85
2022-08-17T00:08:15.517Z,81.85
2022-08-17T00:09:19.036Z,81.77
2022-08-17T00:10:23.213Z,81.81
2022-08-17T00:11:28.949Z,81.98
2022-08-17T00:12:41.281Z,82.02
2022-08-17T00:13:38.784Z,82.36
2022-08-17T00:14:41.099Z,82.51
2022-08-17T00:15:44.665Z,82.66
2022-08-17T00:16:57.286Z,82.67
2022-08-17T00:17:54.765Z,82.67
2022-08-17T00:19:08.412Z,82.71
2022-08-17T00:20:08.886Z,82.69
2022-08-17T00:21:11.783Z,82.54
2022-08-17T00:22:31.234Z,82.39
2022-08-17T00:23:22.287Z,82.33
2022-08-17T00:24:24.551Z,82.36
2022-08-17T00:25:27.809Z,82.64
2022-08-17T00:26:43.593Z,83.16
2022-08-17T00:27:35.481Z,83.46
2022-08-17T00:28:38.806Z,83.56
2022-08-17T00:29:41.455Z,83.57
2022-08-17T00:30:51.061Z,83.67
2022-08-17T00:31:51.514Z,83.80
2022-08-17T00:33:12.568Z,83.83
2022-08-17T00:33:57.785Z,83.67
2022-08-17T00:34:59.822Z,83.59
2022-08-17T00:36:02.107Z,83.65
2022-08-17T00:37:05.588Z,83.68
2022-08-17T00:38:08.610Z,83.77
2022-08-17T00:39:11.886Z,83.79
2022-08-17T00:40:15.771Z,83.78
2022-08-17T00:41:22.102Z,83.61
2022-08-17T00:42:27.582Z,83.38
2022-08-17T00:43:41.089Z,83.18
2022-08-17T00:44:44.847Z,82.78
2022-08-17T00:45:48.423Z,82.34
2022-08-17T00:46:50.729Z,82.29
2022-08-17T00:47:53.018Z,82.26
2022-08-17T00:48:55.226Z,82.16
2022-08-17T00:49:57.489Z,82.09
2022-08-17T00:51:09.358Z,82.16
2022-08-17T00:52:17.576Z,82.21
2022-08-17T00:53:20.441Z,82.19
2022-08-17T00:54:29.010Z,82.39
2022-08-17T00:55:31.506Z,82.95
2022-08-17T00:56:38.079Z,83.72
2022-08-17T00:57:43.858Z,83.96
2022-08-17T00:58:46.892Z,84.20
2022-08-17T01:00:02.384Z,84.32
2022-08-17T01:01:00.580Z,84.19
2022-08-17T01:02:04.998Z,84.03
2022-08-17T01:03:10.752Z,83.98
2022-08-17T01:04:14.685Z,84.05
2022-08-17T01:05:20.609Z,83.98
2022-08-17T01:06:24.730Z,83.97
2022-08-17T01:07:27.197Z,84.00
2022-08-17T01:08:31.088Z,83.98
2022-08-17T01:09:33.659Z,84.04
2022-08-17T01:10:59.918Z,83.95
2022-08-17T01:11:45.626Z,83.78
2022-08-17T01:12:48.527Z,83.64
2022-08-17T01:13:51.177Z,83.90
2022-08-17T01:14:53.573Z,83.96
2022-08-17T01:16:02.642Z,84.07
2022-08-17T01:17:06.166Z,84.28
2022-08-17T01:18:11.224Z,84.47
2022-08-17T01:19:19.999Z,84.38
2022-08-17T01:20:23.284Z,84.39
2022-08-17T01:21:55.908Z,84.05
2022-08-17T01:22:59.209Z,84.05
2022-08-17T01:24:01.835Z,84.31
2022-08-17T01:25:08.494Z,84.31
2022-08-17T01:26:11.609Z,84.28
2022-08-17T01:27:16.349Z,84.36
2022-08-17T01:28:36.186Z,84.23
2022-08-17T01:29:27.369Z,84.13
2022-08-17T01:30:57.072Z,83.95
2022-08-17T01:31:39.643Z,83.81
2022-08-17T01:32:42.024Z,83.72
2022-08-17T01:33:44.393Z,83.60
2022-08-17T01:34:50.191Z,83.65
2022-08-17T01:35:50.656Z,83.87
2022-08-17T01:36:53.435Z,83.99
2022-08-17T01:37:55.678Z,84.12
2022-08-17T01:38:57.860Z,84.04
2022-08-17T01:40:03.559Z,84.17
2022-08-17T01:41:09.514Z,84.23
2022-08-17T01:42:27.587Z,83.91
2022-08-17T01:43:33.359Z,83.64
2022-08-17T01:44:35.813Z,83.32
2022-08-17T01:45:43.352Z,83.40
2022-08-17T01:46:45.777Z,83.63
2022-08-17T01:47:48.999Z,83.65
2022-08-17T01:48:51.740Z,83.62
2022-08-17T01:49:54.507Z,83.52
2022-08-17T01:50:56.848Z,83.53
2022-08-17T01:52:08.358Z,83.66
2022-08-17T01:53:14.018Z,83.71
2022-08-17T01:54:18.445Z,83.66
2022-08-17T01:55:27.329Z,83.60
2022-08-17T01:56:30.816Z,83.55
2022-08-17T01:57:33.455Z,83.56
2022-08-17T01:58:36.968Z,83.52
2022-08-17T01:59:39.283Z,83.68
2022-08-17T02:00:59.380Z,83.58
2022-08-17T02:01:48.274Z,83.66
2022-08-17T02:02:50.751Z,83.71
2022-08-17T02:04:00.926Z,84.09
2022-08-17T02:04:59.012Z,84.09
2022-08-17T02:06:02.411Z,84.91
2022-08-17T02:07:04.632Z,85.21
2022-08-17T02:08:06.819Z,85.24
2022-08-17T02:09:12.218Z,85.53
2022-08-17T02:10:20.128Z,85.65
2022-08-17T02:11:21.470Z,85.68
2022-08-17T02:12:37.656Z,85.72
2022-08-17T02:13:27.804Z,85.70
2022-08-17T02:14:30.307Z,85.63
2022-08-17T02:15:32.880Z,85.80
2022-08-17T02:16:38.326Z,85.73
2022-08-17T02:17:41.284Z,86.02
2022-08-17T02:18:44.213Z,85.91
2022-08-17T02:19:46.313Z,85.76
2022-08-17T02:20:49.388Z,85.78
2022-08-17T02:21:54.026Z,85.91
2022-08-17T02:22:57.456Z,86.37
2022-08-17T02:23:59.802Z,86.37
2022-08-17T02:25:03.670Z,86.42
2022-08-17T02:26:07.938Z,86.65
2022-08-17T02:27:10.266Z,86.52
2022-08-17T02:28:12.783Z,86.52
2022-08-17T02:29:15.188Z,86.72
2022-08-17T02:30:50.218Z,86.76
2022-08-17T02:31:22.226Z,86.69
2022-08-17T02:32:28.447Z,86.54
2022-08-17T02:33:43.275Z,86.32
2022-08-17T02:34:35.622Z,86.11
2022-08-17T02:35:38.322Z,85.92
2022-08-17T02:36:41.051Z,85.80
2022-08-17T02:37:43.158Z,85.88
2022-08-17T02:38:47.164Z,85.98
2022-08-17T02:39:49.411Z,85.94
2022-08-17T02:40:51.789Z,86.11
2022-08-17T02:42:01.539Z,86.23
2022-08-17T02:43:03.777Z,86.75
2022-08-17T02:44:06.769Z,86.90
2022-08-17T02:45:12.729Z,87.11
2022-08-17T02:46:17.136Z,87.21
2022-08-17T02:47:19.189Z,87.68
2022-08-17T02:48:31.172Z,88.29
2022-08-17T02:49:26.365Z,88.30
2022-08-17T02:50:29.418Z,88.51
2022-08-17T02:51:32.181Z,88.84
2022-08-17T02:52:43.238Z,88.96
2022-08-17T02:53:40.502Z,89.04
2022-08-17T02:54:42.769Z,88.99
2022-08-17T02:55:44.945Z,89.18
2022-08-17T02:56:47.197Z,89.21
2022-08-17T02:57:50.842Z,89.23
2022-08-17T02:58:53.228Z,89.08
2022-08-17T02:59:55.275Z,88.98
2022-08-17T03:00:58.165Z,89.01
2022-08-17T03:02:03.699Z,88.84
2022-08-17T03:03:09.433Z,88.80
2022-08-17T03:04:11.769Z,88.57
2022-08-17T03:05:17.502Z,88.35
2022-08-17T03:06:20.008Z,88.25
2022-08-17T03:07:22.075Z,88.47
2022-08-17T03:08:24.525Z,88.58
2022-08-17T03:09:27.648Z,88.57
2022-08-17T03:10:30.071Z,88.41
2022-08-17T03:11:32.327Z,88.41
2022-08-17T03:12:36.949Z,88.26
2022-08-17T03:13:39.408Z,88.37
2022-08-17T03:14:42.555Z,88.58
2022-08-17T03:15:47.028Z,88.62
2022-08-17T03:16:49.358Z,88.69
2022-08-17T03:17:52.666Z,88.71
2022-08-17T03:18:55.006Z,88.74
2022-08-17T03:19:56.982Z,89.00
2022-08-17T03:21:00.969Z,89.02
2022-08-17T03:22:34.670Z,88.93
2022-08-17T03:23:10.616Z,88.89
2022-08-17T03:24:13.263Z,88.97
2022-08-17T03:25:23.642Z,88.99
2022-08-17T03:26:29.662Z,89.17
2022-08-17T03:27:31.724Z,89.16
2022-08-17T03:28:33.902Z,89.17
2022-08-17T03:29:36.037Z,88.98
2022-08-17T03:30:38.917Z,89.01
2022-08-17T03:31:41.060Z,88.89
2022-08-17T03:32:46.276Z,88.89
2022-08-17T03:33:48.440Z,88.83
2022-08-17T03:34:50.612Z,88.74
2022-08-17T03:35:52.872Z,88.46
2022-08-17T03:36:55.435Z,88.28
2022-08-17T03:38:00.384Z,88.16
2022-08-17T03:39:02.620Z,88.07
2022-08-17T03:40:06.721Z,87.88
2022-08-17T03:41:09.535Z,87.90
2022-08-17T03:42:32.052Z,87.32
2022-08-17T03:43:22.613Z,87.18
2022-08-17T03:44:24.771Z,87.12
2022-08-17T03:45:26.928Z,87.33
2022-08-17T03:46:34.476Z,87.27
2022-08-17T03:47:35.442Z,86.98
2022-08-17T03:48:37.698Z,86.76
2022-08-17T03:49:39.734Z,86.58
2022-08-17T03:50:41.997Z,86.46
2022-08-17T03:51:44.275Z,86.00
2022-08-17T03:52:51.828Z,86.17
2022-08-17T03:53:56.779Z,86.21
2022-08-17T03:54:58.754Z,86.18
2022-08-17T03:56:04.735Z,86.06
2022-08-17T03:57:09.155Z,86.12
2022-08-17T03:58:11.445Z,85.83
2022-08-17T03:59:22.404Z,85.73
2022-08-17T04:00:21.195Z,85.64
2022-08-17T04:01:24.316Z,85.78
2022-08-17T04:02:32.468Z,85.82
2022-08-17T04:03:34.903Z,85.56
2022-08-17T04:04:38.255Z,85.52
2022-08-17T04:05:42.048Z,85.54
2022-08-17T04:06:45.387Z,85.33
2022-08-17T04:07:47.476Z,85.08
2022-08-17T04:08:49.565Z,85.03
2022-08-17T04:09:51.742Z,84.65
2022-08-17T04:10:55.778Z,84.55
2022-08-17T04:12:00.304Z,84.57
2022-08-17T04:13:03.575Z,84.20
2022-08-17T04:14:06.548Z,83.94
2022-08-17T04:15:09.506Z,83.70
2022-08-17T04:16:12.784Z,83.69
2022-08-17T04:17:14.648Z,83.51
2022-08-17T04:18:18.547Z,83.50
2022-08-17T04:19:20.689Z,83.54
2022-08-17T04:20:24.745Z,83.55
2022-08-17T04:21:27.192Z,83.51
2022-08-17T04:22:33.235Z,83.24
2022-08-17T04:23:33.496Z,83.21
2022-08-17T04:24:36.419Z,83.18
2022-08-17T04:25:41.676Z,83.21
2022-08-17T04:26:52.210Z,83.36
2022-08-17T04:27:48.093Z,83.54
2022-08-17T04:28:50.151Z,83.45
2022-08-17T04:29:55.626Z,83.28
2022-08-17T04:30:56.619Z,83.34
2022-08-17T04:31:59.232Z,83.26
2022-08-17T04:33:07.097Z,83.19
2022-08-17T04:34:10.067Z,83.19
2022-08-17T04:35:18.738Z,82.85
2022-08-17T04:36:21.852Z,82.59
2022-08-17T04:37:24.104Z,82.49
2022-08-17T04:38:32.624Z,82.67
2022-08-17T04:39:35.314Z,82.75
2022-08-17T04:40:38.334Z,82.97
2022-08-17T04:41:40.497Z,82.98
2022-08-17T04:42:49.529Z,82.92
2022-08-17T04:43:54.567Z,82.91
2022-08-17T04:44:57.233Z,83.00
2022-08-17T04:46:02.287Z,83.13
2022-08-17T04:47:04.721Z,83.16
2022-08-17T04:48:07.206Z,83.35
2022-08-17T04:49:10.885Z,83.50
2022-08-17T04:50:14.334Z,83.22
2022-08-17T04:51:21.179Z,83.36
2022-08-17T04:52:29.815Z,83.64
2022-08-17T04:53:27.789Z,83.70
2022-08-17T04:54:30.125Z,83.69
2022-08-17T04:55:32.184Z,83.94
2022-08-17T04:56:38.485Z,83.74
2022-08-17T04:57:44.578Z,83.69
2022-08-17T04:58:50.980Z,83.74
2022-08-17T04:59:53.226Z,83.70
2022-08-17T05:00:55.630Z,83.81
2022-08-17T05:01:57.993Z,83.87
2022-08-17T05:03:00.428Z,83.87
2022-08-17T05:04:21.331Z,83.81
2022-08-17T05:05:10.682Z,83.34
2022-08-17T05:06:15.496Z,83.24
2022-08-17T05:07:22.591Z,83.20
2022-08-17T05:08:21.757Z,83.26
2022-08-17T05:09:23.918Z,83.26
2022-08-17T05:10:31.004Z,82.76
2022-08-17T05:11:34.147Z,82.62
2022-08-17T05:12:36.292Z,82.79
2022-08-17T05:13:38.482Z,82.79
2022-08-17T05:14:40.641Z,82.72
2022-08-17T05:15:47.858Z,82.76
2022-08-17T05:16:49.764Z,83.04
2022-08-17T05:17:52.031Z,83.16
2022-08-17T05:18:55.111Z,82.82
2022-08-17T05:19:58.490Z,82.56
2022-08-17T05:21:02.197Z,82.72
2022-08-17T05:22:05.573Z,82.67
2022-08-17T05:23:11.016Z,82.58
2022-08-17T05:24:38.363Z,82.37
2022-08-17T05:25:20.127Z,82.48
2022-08-17T05:26:27.612Z,82.24
2022-08-17T05:27:35.499Z,82.29
2022-08-17T05:28:36.757Z,82.10
2022-08-17T05:29:40.272Z,81.90
2022-08-17T05:30:44.032Z,81.87
2022-08-17T05:31:46.906Z,81.69
2022-08-17T05:32:55.484Z,81.75
2022-08-17T05:33:58.429Z,81.80
2022-08-17T05:35:00.941Z,81.94
2022-08-17T05:36:06.209Z,81.97
2022-08-17T05:37:08.339Z,81.69
2022-08-17T05:38:11.000Z,81.26
2022-08-17T05:39:15.920Z,81.00
2022-08-17T05:40:21.266Z,80.51
2022-08-17T05:41:24.139Z,80.36
2022-08-17T05:42:26.490Z,80.39
2022-08-17T05:43:32.124Z,80.49
2022-08-17T05:44:35.417Z,80.28
2022-08-17T05:45:54.337Z,79.91
2022-08-17T05:46:51.422Z,79.59
2022-08-17T05:47:53.476Z,79.43
2022-08-17T05:48:59.257Z,79.19
2022-08-17T05:50:02.344Z,79.03
2022-08-17T05:51:16.115Z,78.94
2022-08-17T05:52:27.640Z,78.51
2022-08-17T05:53:38.732Z,78.39
2022-08-17T05:55:06.412Z,78.31
2022-08-17T05:56:29.454Z,78.38
2022-08-17T05:57:43.596Z,78.37
2022-08-17T05:59:01.215Z,78.62
2022-08-17T06:00:22.239Z,78.66
2022-08-17T06:01:42.067Z,78.89
2022-08-17T06:03:16.132Z,78.91
2022-08-17T06:04:54.010Z,79.00
2022-08-17T06:06:31.819Z,78.73
2022-08-17T06:07:50.523Z,79.16
2022-08-17T06:10:19.338Z,79.88
2022-08-17T06:11:40.003Z,79.76
2022-08-17T06:13:08.092Z,79.50
2022-08-17T06:14:28.747Z,79.04
2022-08-17T06:15:40.748Z,79.07
2022-08-17T06:16:46.671Z,79.14
2022-08-17T06:17:56.224Z,79.19
2022-08-17T06:19:07.804Z,79.62
2022-08-17T06:20:14.313Z,79.81
2022-08-17T06:21:19.247Z,79.78
2022-08-17T06:22:26.788Z,79.03
2022-08-17T06:23:41.226Z,78.64
2022-08-17T06:24:57.810Z,78.70
2022-08-17T06:26:03.496Z,78.41
2022-08-17T06:27:15.021Z,78.07
2022-08-17T06:28:20.767Z,77.66
2022-08-17T06:29:59.605Z,77.09
2022-08-17T06:31:15.151Z,76.51
2022-08-17T06:32:18.541Z,76.30
2022-08-17T06:33:24.383Z,75.96
2022-08-17T06:34:26.495Z,75.46
2022-08-17T06:35:34.826Z,75.10
2022-08-17T06:36:49.855Z,75.64
2022-08-17T06:38:17.273Z,75.92
2022-08-17T06:39:20.983Z,76.50
2022-08-17T06:40:37.069Z,76.75
2022-08-17T06:41:51.586Z,76.95
2022-08-17T06:43:15.806Z,76.75
2022-08-17T06:44:47.576Z,76.87
2022-08-17T06:45:38.344Z,76.04
2022-08-17T06:46:50.067Z,75.58
2022-08-17T06:48:14.145Z,75.47
2022-08-17T06:49:20.387Z,75.15
2022-08-17T06:50:27.525Z,74.35
2022-08-17T06:51:41.964Z,74.28
2022-08-17T06:52:54.101Z,74.15
2022-08-17T06:54:11.885Z,74.03
2022-08-17T06:55:18.938Z,74.02
2022-08-17T06:56:25.166Z,74.50
2022-08-17T06:57:32.748Z,74.60
2022-08-17T06:58:37.846Z,74.31
2022-08-17T06:59:56.235Z,74.15
2022-08-17T07:00:58.828Z,74.14
2022-08-17T07:02:04.449Z,74.24
2022-08-17T07:03:16.106Z,73.98
2022-08-17T07:04:28.582Z,73.70
2022-08-17T07:05:36.998Z,73.25
2022-08-17T07:06:48.826Z,73.37
2022-08-17T07:09:32.395Z,73.86
2022-08-17T07:10:38.200Z,73.71
2022-08-17T07:11:57.556Z,72.76
2022-08-17T07:13:03.237Z,72.96
2022-08-17T07:14:27.120Z,73.71
2022-08-17T07:15:33.264Z,73.97
2022-08-17T07:16:46.180Z,74.02
2022-08-17T07:17:50.077Z,73.40
2022-08-17T07:18:54.781Z,72.55
2022-08-17T07:20:00.637Z,72.55
2022-08-17T07:22:57.371Z,71.44
2022-08-17T07:23:49.317Z,71.37
2022-08-17T07:25:00.979Z,71.38
2022-08-17T07:26:08.558Z,72.10
2022-08-17T07:27:17.363Z,72.65
2022-08-17T07:28:22.194Z,72.57
2022-08-17T07:29:25.161Z,72.66
2022-08-17T07:30:49.531Z,72.51
2022-08-17T07:31:56.105Z,72.51
2022-08-17T07:33:04.004Z,72.65
2022-08-17T07:34:09.268Z,72.64
2022-08-17T07:35:21.036Z,72.62
2022-08-17T07:36:29.788Z,72.28
2022-08-17T07:37:31.579Z,71.79
2022-08-17T07:38:34.581Z,70.66
2022-08-17T07:39:37.355Z,70.60
2022-08-17T07:40:57.798Z,70.31
2022-08-17T07:42:04.548Z,70.39
2022-08-17T07:44:20.313Z,69.57
2022-08-17T07:45:23.379Z,69.35
2022-08-17T07:46:37.876Z,69.43
2022-08-17T07:47:40.107Z,69.38
2022-08-17T07:48:44.969Z,69.21
2022-08-17T07:49:49.301Z,69.03
2022-08-17T07:50:54.416Z,68.59
2022-08-17T07:52:24.139Z,68.50
2022-08-17T07:53:23.387Z,69.22
2022-08-17T07:54:32.340Z,69.47
2022-08-17T07:55:34.457Z,69.39
2022-08-17T07:56:43.070Z,69.69
2022-08-17T07:57:48.815Z,69.96
2022-08-17T07:58:54.554Z,70.93
2022-08-17T08:00:03.335Z,71.15
2022-08-17T08:01:13.995Z,70.55
2022-08-17T08:02:24.169Z,69.58
2022-08-17T08:03:28.534Z,68.89
2022-08-17T08:04:59.702Z,68.83
2022-08-17T08:05:55.303Z,68.71
2022-08-17T08:07:01.050Z,67.27
2022-08-17T08:08:06.849Z,67.59
2022-08-17T08:09:12.717Z,67.62
2022-08-17T08:10:36.347Z,67.65
2022-08-17T08:11:43.766Z,66.42
2022-08-17T08:12:46.266Z,66.64
2022-08-17T08:13:49.537Z,66.29
2022-08-17T08:15:01.804Z,67.19
2022-08-17T08:16:20.373Z,67.52
2022-08-17T08:17:39.979Z,67.47
2022-08-17T08:18:56.764Z,68.17
2022-08-17T08:19:59.968Z,67.82
2022-08-17T08:21:08.507Z,67.08
2022-08-17T08:22:14.276Z,67.66
2022-08-17T08:23:37.398Z,67.62
2022-08-17T08:24:58.424Z,67.15
2022-08-17T08:26:22.487Z,66.26
2022-08-17T08:27:34.379Z,65.28
2022-08-17T08:28:58.315Z,65.67
2022-08-17T08:30:10.133Z,65.00
2022-08-17T08:31:21.641Z,64.50
2022-08-17T08:32:30.535Z,64.50
2022-08-17T08:34:08.092Z,65.28
2022-08-17T08:35:44.894Z,64.78
2022-08-17T08:37:19.280Z,64.62
2022-08-17T08:38:21.959Z,63.65
2022-08-17T08:39:30.462Z,62.66
2022-08-17T08:40:45.222Z,62.48
2022-08-17T08:41:54.136Z,62.91
2022-08-17T08:43:24.352Z,62.60
2022-08-17T08:45:00.116Z,62.83
2022-08-17T08:46:19.828Z,63.19
2022-08-17T08:47:35.454Z,61.12
2022-08-17T08:49:12.249Z,62.25
2022-08-17T08:50:40.581Z,62.44
2022-08-17T08:51:58.666Z,61.97
2022-08-17T08:53:13.666Z,61.11
2022-08-17T08:54:26.670Z,62.56
2022-08-17T08:55:48.259Z,62.97
2022-08-17T08:57:33.950Z,62.72
2022-08-17T08:58:42.676Z,63.21
2022-08-17T09:00:10.123Z,64.81
2022-08-17T09:01:32.506Z,62.14
2022-08-17T09:02:54.863Z,62.82
2022-08-17T09:04:19.540Z,61.91
2022-08-17T09:05:40.982Z,62.56
2022-08-17T09:07:01.890Z,63.03
2022-08-17T09:08:13.990Z,61.03
2022-08-17T09:09:25.345Z,61.64
2022-08-17T09:10:51.047Z,62.56
2022-08-17T09:12:03.988Z,62.46
2022-08-17T09:13:23.018Z,62.39
2022-08-17T09:14:29.503Z,62.31
2022-08-17T09:15:47.633Z,62.68
2022-08-17T09:17:22.568Z,62.31
2022-08-17T09:19:02.891Z,63.33
2022-08-17T09:19:57.876Z,63.47
2022-08-17T09:21:10.111Z,62.95
2022-08-17T09:22:30.753Z,62.81
2022-08-17T09:23:40.871Z,62.04
2022-08-17T09:24:55.252Z,62.72
2022-08-17T09:26:18.621Z,61.50
2022-08-17T09:27:33.668Z,61.99
2022-08-17T09:28:39.497Z,61.65
2022-08-17T09:29:48.522Z,61.83
2022-08-17T09:30:54.757Z,61.08
2022-08-17T09:32:00.320Z,63.36
2022-08-17T09:33:07.178Z,62.85
2022-08-17T09:34:12.965Z,60.30
2022-08-17T09:36:34.506Z,61.63
2022-08-17T09:37:55.330Z,60.92
2022-08-17T09:39:04.139Z,61.84
2022-08-17T09:40:13.508Z,60.87
2022-08-17T09:41:25.459Z,61.13
2022-08-17T09:42:35.498Z,60.70
2022-08-17T09:43:50.264Z,58.87
2022-08-17T09:45:15.353Z,58.56
2022-08-17T09:46:21.760Z,57.72
2022-08-17T09:47:39.437Z,58.20
2022-08-17T09:48:47.823Z,58.33
2022-08-17T09:49:56.421Z,58.91
2022-08-17T09:51:22.049Z,58.47
2022-08-17T09:52:27.398Z,56.34
2022-08-17T09:53:31.851Z,56.82
2022-08-17T09:54:40.149Z,56.14
2022-08-17T09:55:55.656Z,56.56
2022-08-17T09:57:29.358Z,55.88
2022-08-17T09:58:40.214Z,56.90
2022-08-17T09:59:49.034Z,57.51
2022-08-17T10:00:58.822Z,57.86
2022-08-17T10:02:28.125Z,56.51
2022-08-17T10:03:39.061Z,55.38
2022-08-17T10:04:51.980Z,56.15
2022-08-17T10:06:14.632Z,55.30
2022-08-17T10:07:26.457Z,56.27
2022-08-17T10:08:47.556Z,57.13
2022-08-17T10:09:57.013Z,57.87
2022-08-17T10:11:38.963Z,58.11
2022-08-17T10:12:47.190Z,57.10
2022-08-17T10:13:59.656Z,57.34
2022-08-17T10:17:00.302Z,57.07
2022-08-17T10:18:21.346Z,55.42
2022-08-17T10:19:44.091Z,56.47
2022-08-17T10:21:10.685Z,55.40
2022-08-17T10:23:48.393Z,57.09
2022-08-17T10:25:01.910Z,57.51
2022-08-17T10:26:12.206Z,56.65
2022-08-17T10:27:17.615Z,56.41
2022-08-17T10:29:51.581Z,57.22
2022-08-17T10:31:10.718Z,56.14
2022-08-17T10:32:07.814Z,56.37
2022-08-17T10:33:20.346Z,56.41
2022-08-17T10:34:51.421Z,55.90
2022-08-17T10:36:15.415Z,55.71
2022-08-17T10:37:44.914Z,54.89
2022-08-17T10:40:18.959Z,55.68
2022-08-17T10:41:24.905Z,56.13
2022-08-17T10:42:33.101Z,56.00
2022-08-17T10:44:38.694Z,53.04
2022-08-17T10:45:33.820Z,54.69
2022-08-17T10:46:49.249Z,54.44
2022-08-17T10:48:05.056Z,55.09
2022-08-17T10:49:20.180Z,54.35
2022-08-17T10:52:03.006Z,55.74
2022-08-17T10:53:05.149Z,54.90
2022-08-17T10:54:26.464Z,54.72
2022-08-17T10:55:28.587Z,54.02
2022-08-17T10:56:47.266Z,53.52
2022-08-17T10:57:51.083Z,52.10
2022-08-17T10:58:56.699Z,52.08
2022-08-17T11:00:11.457Z,51.65
2022-08-17T11:01:14.005Z,54.30
2022-08-17T11:02:22.830Z,53.87
2022-08-17T11:03:26.325Z,53.36
2022-08-17T11:06:06.363Z,53.20
2022-08-17T11:07:26.652Z,53.69
2022-08-17T11:08:47.226Z,53.30
2022-08-17T11:10:18.474Z,52.34
2022-08-17T11:11:30.135Z,52.41
2022-08-17T11:12:55.871Z,52.62
2022-08-17T11:15:30.891Z,52.14
2022-08-17T11:16:59.910Z,51.04
2022-08-17T11:18:20.907Z,52.07
2022-08-17T11:19:49.432Z,51.04
2022-08-17T11:21:26.033Z,52.59
2022-08-17T11:22:51.917Z,50.76
2022-08-17T11:24:20.374Z,51.31
2022-08-17T11:25:32.096Z,51.08
2022-08-17T11:26:37.837Z,51.64
2022-08-17T11:27:41.459Z,51.44
2022-08-17T11:28:53.035Z,51.25
2022-08-17T11:30:02.864Z,50.86
2022-08-17T11:31:08.996Z,50.08
2022-08-17T11:32:35.019Z,48.23
2022-08-17T11:33:46.687Z,48.93
2022-08-17T11:34:49.271Z,49.57
2022-08-17T11:37:32.549Z,47.36
2022-08-17T11:38:38.231Z,48.18
2022-08-17T11:39:52.701Z,48.82
2022-08-17T11:41:21.456Z,48.89
2022-08-17T11:42:45.324Z,49.85
2022-08-17T11:44:08.420Z,47.35
2022-08-17T11:45:33.468Z,47.63
2022-08-17T11:46:50.972Z,49.26
2022-08-17T11:48:24.208Z,47.97
2022-08-17T11:49:13.531Z,48.67
2022-08-17T11:50:28.020Z,47.95
2022-08-17T11:51:53.801Z,47.73
2022-08-17T11:52:57.417Z,48.10
2022-08-17T11:54:31.728Z,48.39
2022-08-17T11:55:38.205Z,46.00
2022-08-17T11:56:48.077Z,46.51
2022-08-17T11:57:57.130Z,47.63
2022-08-17T11:59:01.569Z,46.00
2022-08-17T12:00:09.813Z,45.46
2022-08-17T12:01:24.363Z,47.25
2022-08-17T12:02:31.530Z,47.01
2022-08-17T12:03:38.115Z,45.35
2022-08-17T12:04:43.968Z,44.60
2022-08-17T12:05:47.208Z,46.07
2022-08-17T12:06:56.673Z,45.74
2022-08-17T12:08:08.944Z,45.20
2022-08-17T12:09:22.545Z,45.31
2022-08-17T12:10:29.084Z,44.65
2022-08-17T12:11:55.575Z,45.32
2022-08-17T12:12:41.483Z,45.43
2022-08-17T12:13:49.974Z,44.08
2022-08-17T12:15:10.551Z,44.04
2022-08-17T12:16:15.860Z,43.97
2022-08-17T12:17:39.706Z,42.88
2022-08-17T12:18:29.174Z,44.66
2022-08-17T12:19:33.085Z,43.55
2022-08-17T12:20:42.880Z,44.04
2022-08-17T12:22:04.742Z,43.44
2022-08-17T12:23:13.362Z,43.19
2022-08-17T12:26:07.158Z,43.75
2022-08-17T12:27:13.260Z,44.00
2022-08-17T12:29:39.859Z,42.50
2022-08-17T12:30:45.983Z,42.30
2022-08-17T12:31:51.571Z,42.15
2022-08-17T12:32:55.691Z,42.76
2022-08-17T12:33:58.101Z,42.82
2022-08-17T12:35:00.765Z,42.57
2022-08-17T12:36:06.825Z,43.34
2022-08-17T12:37:22.159Z,43.65
2022-08-17T12:38:32.031Z,43.18
2022-08-17T12:39:29.866Z,42.70
2022-08-17T12:40:36.049Z,41.97
2022-08-17T12:41:41.039Z,42.50
2022-08-17T12:43:59.282Z,42.05
2022-08-17T12:45:02.028Z,41.90
2022-08-17T12:46:13.259Z,41.88
2022-08-17T12:47:21.002Z,41.73
2022-08-17T12:48:25.916Z,42.19
2022-08-17T12:49:34.649Z,41.93
2022-08-17T12:50:41.161Z,42.03
2022-08-17T12:51:46.627Z,41.58
2022-08-17T12:52:49.460Z,40.03
2022-08-17T12:53:54.884Z,41.43
2022-08-17T12:55:00.715Z,40.87
2022-08-17T12:56:06.641Z,40.33
2022-08-17T12:58:32.318Z,41.48
2022-08-17T12:59:38.067Z,42.16
2022-08-17T13:00:47.536Z,41.36
2022-08-17T13:01:47.880Z,41.15
2022-08-17T13:02:59.970Z,41.52
2022-08-17T13:04:04.758Z,41.18
2022-08-17T13:05:10.668Z,40.93
2022-08-17T13:07:31.677Z,40.75
2022-08-17T13:08:40.595Z,40.09
2022-08-17T13:09:46.423Z,39.94
2022-08-17T13:11:08.871Z,40.56
2022-08-17T13:12:08.744Z,41.31
2022-08-17T13:13:23.312Z,41.46
2022-08-17T13:14:26.901Z,41.39
2022-08-17T13:15:38.604Z,41.64
2022-08-17T13:16:49.440Z,41.95
2022-08-17T13:18:00.685Z,41.62
2022-08-17T13:20:27.142Z,41.31
2022-08-17T13:21:29.872Z,40.91
2022-08-17T13:22:32.044Z,41.89
2022-08-17T13:23:34.551Z,42.24
2022-08-17T13:24:42.049Z,42.52
2022-08-17T13:25:56.984Z,43.34
2022-08-17T13:27:07.810Z,43.40
2022-08-17T13:28:11.127Z,43.23
2022-08-17T13:29:23.457Z,42.91
2022-08-17T13:30:30.490Z,42.07
2022-08-17T13:31:44.085Z,42.57
2022-08-17T13:32:45.190Z,41.86
2022-08-17T13:33:50.129Z,41.66
2022-08-17T13:35:14.123Z,40.97
2022-08-17T13:36:07.805Z,40.40
2022-08-17T13:37:24.709Z,40.71
2022-08-17T13:38:43.345Z,41.15
2022-08-17T13:39:45.651Z,41.21
2022-08-17T13:40:51.258Z,40.68
2022-08-17T13:41:54.424Z,39.97
2022-08-17T13:42:57.120Z,39.24
2022-08-17T13:43:59.744Z,39.96
2022-08-17T13:45:01.772Z,40.00
2022-08-17T13:46:21.794Z,39.67
2022-08-17T13:47:24.699Z,38.41
2022-08-17T13:48:30.301Z,38.71
2022-08-17T13:49:49.078Z,37.37
2022-08-17T13:51:00.543Z,38.59
2022-08-17T13:52:03.512Z,38.32
2022-08-17T13:53:31.154Z,39.15
2022-08-17T13:54:37.075Z,39.02
2022-08-17T13:55:39.370Z,40.30
2022-08-17T13:56:47.896Z,39.91
2022-08-17T13:58:04.098Z,40.73
2022-08-17T13:59:13.082Z,40.99
2022-08-17T14:01:53.192Z,40.42
2022-08-17T14:02:51.492Z,41.29
2022-08-17T14:03:53.903Z,40.59
2022-08-17T14:04:56.896Z,40.18
2022-08-17T14:06:02.784Z,40.15
2022-08-17T14:07:14.361Z,40.87
2022-08-17T14:08:19.667Z,41.08
2022-08-17T14:09:25.701Z,40.59
2022-08-17T14:10:29.985Z,39.32
2022-08-17T14:11:31.999Z,39.59
2022-08-17T14:12:36.462Z,39.30
2022-08-17T14:13:39.747Z,38.39
2022-08-17T14:14:45.390Z,38.31
2022-08-17T14:15:56.331Z,38.16
2022-08-17T14:16:53.701Z,37.73
2022-08-17T14:17:55.914Z,37.62
2022-08-17T14:18:58.577Z,37.20
2022-08-17T14:20:00.807Z,38.02
2022-08-17T14:21:03.809Z,37.32
2022-08-17T14:22:11.613Z,36.63
2022-08-17T14:23:14.902Z,36.34
2022-08-17T14:24:29.871Z,36.85
2022-08-17T14:25:32.213Z,35.78
2022-08-17T14:26:35.624Z,35.51
2022-08-17T14:27:52.496Z,36.16
2022-08-17T14:28:54.729Z,35.27
2022-08-17T14:29:47.730Z,35.58
2022-08-17T14:30:50.582Z,35.49
2022-08-17T14:31:55.413Z,34.68
2022-08-17T14:32:58.675Z,34.00
2022-08-17T14:34:01.380Z,35.10
2022-08-17T14:35:05.594Z,35.10
2022-08-17T14:36:08.063Z,35.98
2022-08-17T14:37:10.090Z,35.84
2022-08-17T14:38:12.115Z,35.46
2022-08-17T14:39:16.865Z,35.77
2022-08-17T14:40:22.672Z,36.19
2022-08-17T14:41:25.247Z,37.07
2022-08-17T14:42:30.366Z,37.28
2022-08-17T14:43:39.123Z,37.86
2022-08-17T14:44:41.306Z,37.53
2022-08-17T14:45:44.368Z,37.67
2022-08-17T14:46:46.553Z,38.73
2022-08-17T14:47:48.846Z,38.78
2022-08-17T14:48:56.977Z,39.37
2022-08-17T14:49:56.530Z,39.22
2022-08-17T14:50:59.957Z,39.47
2022-08-17T14:52:02.727Z,40.34
2022-08-17T14:53:08.437Z,39.74
2022-08-17T14:54:11.919Z,41.19
2022-08-17T14:55:16.423Z,41.91
2022-08-17T14:56:21.655Z,41.72
2022-08-17T14:57:33.976Z,41.95
2022-08-17T14:58:30.979Z,42.12
2022-08-17T14:59:33.662Z,42.13
2022-08-17T15:00:38.012Z,42.21
2022-08-17T15:01:40.291Z,42.55
2022-08-17T15:02:46.011Z,42.24
2022-08-17T15:03:48.034Z,42.76
2022-08-17T15:04:50.588Z,42.92
2022-08-17T15:05:52.752Z,43.40
2022-08-17T15:06:55.446Z,43.16
2022-08-17T15:07:58.497Z,43.10